Fyodor Pluzhnikov

Chefscout - Spartak Moscow
3 Dez 2028
Sonntag
Verarbeitung

Persönlichkeit

Anpassungsfähigkeit (10) Ehrgeiz (7) Kontroverse (19) Loyalität (17) Druck (13) Professionalität (8) Fairness (8) Temperament (15)

Profil

Trainerstil Demokratisch
Lizenz Kontinentale Pro
Entschlossenheit 8
Menschenführung 10
Motivation 10
Disziplin 9
Arbeitszufriedenheit
100%
Ermüdung
0%
Rolle Chefscout
Gehalt 93.3K p/W
Vertrag 14.03.2030

Leistung

Verhalten Gut
Trainingseffektivität
50%
Spielerentwicklung
35%
Verletzungsprävention
65%
Taktische Umsetzung
65%

Letzte Ereignisse

Empfahl ein Transferziel jetzt
Empfahl ein Transferziel jetzt
Empfahl ein Transferziel jetzt
Empfahl ein Transferziel jetzt
Empfahl ein Transferziel jetzt
Spieler begutachtet jetzt
Spieler begutachtet jetzt
Spieler begutachtet jetzt

Aktuell beobachtet

171
Spieler Verein Status Fähigkeit Vertrauen Beobachtet Zuletzt beobachtet Letzte Stimme
Christos Mandas Lazio Aktiv 151 / 150 40% 10 02.12.2028 -
Jonmi Magunagoitia Eibar Aktiv 138 / 140 40% 11 02.12.2028 -
Leandro Brey Boca Juniors Aktiv 144 / 133 40% 5 02.12.2028 -
Elia Caprile Cagliari Aktiv 156 / 156 40% 1 01.12.2028 -
Luciano Jachfe Nueva Chicago Aktiv 127 / 117 40% 14 29.11.2028 -
Lautaro Morales Lanús Aktiv 135 / 133 40% 5 29.11.2028 -
Alexei Rojas Fedorushchenko Barrow AFC Aktiv 131 / 132 40% 3 29.11.2028 -
Alejandro Rodríguez Melgar Aktiv 132 / 121 40% 1 28.11.2028 -
Mark Travers Leicester City Aktiv 146 / 145 40% 4 26.11.2028 -
Lukas Jensen Millwall Aktiv 128 / 129 40% 4 26.11.2028 -
Jonathan Fischer FC Metz Aktiv 144 / 143 40% 1 26.11.2028 -
Radek Vítek Middlesbrough Aktiv 153 / 148 40% 4 25.11.2028 -
Murphy Cooper Plymouth Argyle Aktiv 131 / 130 40% 2 24.11.2028 -
James Beadle Hull City Aktiv 148 / 146 40% 8 23.11.2028 -
Mads Hermansen West Ham United Aktiv 151 / 151 40% 5 23.11.2028 -
Lucas Cuevas Rosario Central Aktiv 128 / 132 40% 2 23.11.2028 -
Robin Roefs Sunderland Aktiv 151 / 153 40% 7 22.11.2028 -
Facundo Sanguinetti Banfield Aktiv 132 / 133 40% 9 22.11.2028 -
Kostantis Tzolakis Brighton Aktiv 158 / 153 40% 4 21.11.2028 -
Joaquín Blázquez Talleres Aktiv 126 / 124 40% 6 20.11.2028 -
Alexandr Koryakin Krasnodar Aktiv 119 / 118 40% 6 20.11.2028 -
Federico Losas Chacarita Juniors Aktiv 127 / 121 40% 4 20.11.2028 -
Unai Marrero Real Sociedad Aktiv 141 / 139 40% 7 19.11.2028 -
James Trafford Leeds United Aktiv 157 / 159 40% 7 19.11.2028 -
Lukáš Horníček Burnley Aktiv 155 / 154 40% 6 16.11.2028 -
Sol Brynn Bradford City Aktiv 138 / 139 40% 5 13.11.2028 -
Caoimhin Kelleher Brentford Aktiv 158 / 157 40% 3 09.11.2028 -
George Wickens Blackpool Aktiv 130 / 131 40% 6 07.11.2028 -
Luis Ingolotti Atlético Tucumán Aktiv 130 / 129 40% 4 06.11.2028 -
Teddy Sharman-Lowe Barnsley Aktiv 133 / 135 40% 2 06.11.2028 -
Abduvohid Ne'matov Nasaf Aktiv 133 / 131 40% 7 05.11.2028 -
Joseph Leclercq Tottenham Aktiv 165 / 163 40% 2 31.10.2028 -
Samuel Brolin Kalmar FF Aktiv 131 / 129 40% 2 31.10.2028 -
Oliver Dovin Coventry City Aktiv 144 / 146 40% 5 25.10.2028 -
Sam Proctor Salford City Aktiv 125 / 128 40% 2 19.10.2028 -
Giorgi Mamardashvili Liverpool Aktiv 171 / 168 40% 1 09.10.2028 -
Filip Marschall Stevenage Aktiv 128 / 130 40% 3 06.10.2028 -
Antonín Kinský Tottenham Aktiv 158 / 154 40% 2 17.09.2028 -
Stanislav Agkatsev Brentford Abgelehnt 149 / 151 66% 2 04.09.2028 Ablehnen
Gustavo Santos Krasnodar Bericht bereit 129 / 119 86% 1 31.07.2028 -
Yerson Mosquera Wolverhampton Aktiv 146 / 149 40% 7 18.07.2028 -
Max Bird Birmingham Aktiv 143 / 142 40% 7 18.07.2028 -
Vitaly Janelt Derby County Aktiv 150 / 148 40% 1 18.07.2028 -
Sander Berge Derby County Verloren 150 / 148 40% 1 11.07.2028 -
Kenny Tete Fulham Verloren 148 / 149 40% 1 11.07.2028 -
Harry Clarke Preston Aktiv 139 / 140 40% 3 10.07.2028 -
Callum Brittain Middlesbrough Aktiv 138 / 135 40% 2 10.07.2028 -
Timothy Castagne Stoke City Verloren 145 / 139 40% 1 27.06.2028 -
Max Johnston Derby County Aktiv 138 / 133 40% 9 26.06.2028 -
Juanlu Bournemouth Aktiv 156 / 160 40% 5 26.06.2028 -
Ivan Oleinikov Krylya Sovetov Bericht bereit 121 / 121 86% 1 26.06.2028 Befürworten
Derry Murkin Derby County Aktiv 137 / 132 40% 1 26.06.2028 -
Jhon Solís Birmingham Aktiv 139 / 142 40% 5 20.06.2028 -
Jayden Bogle Leeds United Aktiv 147 / 145 40% 9 20.06.2028 -
James Justin Leeds United Aktiv 146 / 139 40% 2 20.06.2028 -
Aidan Morris Middlesbrough Aktiv 136 / 134 40% 1 19.06.2028 -
Óscar Mingueza Crystal Palace Aktiv 159 / 151 40% 1 17.06.2028 -
Maksim Samorodov Akhmat Grozny Verloren 125 / 130 86% 1 15.06.2028 -
Andrey Santos Bolton Wanderers Aktiv 149 / 147 40% 9 12.06.2028 -
Oliver Skipp Leicester City Aktiv 141 / 140 40% 2 12.06.2028 -
Welington Southampton Aktiv 139 / 135 40% 5 11.06.2028 -
Jacques Ekomié Wrexham Aktiv 138 / 135 40% 3 11.06.2028 -
André Wolverhampton Aktiv 153 / 151 40% 7 10.06.2028 -
Justin Devenny Stoke City Aktiv 132 / 132 40% 1 10.06.2028 -
Ronnie Edwards Queens Park Rangers Aktiv 137 / 135 40% 2 09.06.2028 -
Brooke Norton-Cuffy Hull City Aktiv 144 / 148 40% 3 08.06.2028 -
Pelle Mattsson Norwich City Aktiv 132 / 135 40% 2 08.06.2028 -
James Garner Everton Aktiv 157 / 158 40% 7 07.06.2028 -
Tristan Crama Wycombe Wanderers Aktiv 131 / 130 40% 4 06.06.2028 -
Lewis Bate Stockport County Aktiv 130 / 134 40% 1 04.06.2028 -
Teden Mengi Luton Town Aktiv 130 / 130 40% 1 04.06.2028 -
Sydie Peck Swindon Town Aktiv 133 / 138 40% 2 30.05.2028 -
Adam Wharton Crystal Palace Aktiv 158 / 158 40% 1 30.05.2028 -
Charlie Hughes Chesterfield Aktiv 135 / 140 40% 4 29.05.2028 -
Alex Scott Bournemouth Aktiv 157 / 157 40% 3 21.05.2028 -
Shea Charles Southampton Aktiv 145 / 142 40% 3 21.05.2028 -
Christoph Klarer Birmingham Aktiv 133 / 133 40% 1 18.05.2028 -
Tariq Lamptey Queens Park Rangers Aktiv 142 / 142 40% 1 17.05.2028 -
Yehor Yarmoliuk Brentford Aktiv 156 / 155 40% 1 17.05.2028 -
Jacob Greaves Ipswich Town Aktiv 141 / 146 40% 3 14.05.2028 -
Riccardo Calafiori Burnley Aktiv 162 / 160 40% 1 13.05.2028 -
Malick Thiaw Ipswich Town Aktiv 157 / 155 40% 1 13.05.2028 -
Ben Nelson Leicester City Aktiv 140 / 142 40% 3 11.05.2028 -
Nathan Collins Brentford Aktiv 155 / 156 40% 4 02.05.2028 -
Tim Iroegbunam Peterborough United Aktiv 143 / 143 40% 2 29.04.2028 -
Ryan Sessegnon Fulham Aktiv 150 / 148 40% 4 22.04.2028 -
Jake O'Brien Everton Aktiv 152 / 150 40% 3 19.04.2028 -
Toby Collyer West Bromwich Albion Aktiv 138 / 140 40% 2 16.04.2028 -
Lucas Da Cunha Como Aktiv 148 / 145 40% 3 14.04.2028 -
Marco Palestra Everton Aktiv 146 / 151 40% 1 07.04.2028 -
Milan van Ewijk Coventry City Aktiv 138 / 135 40% 1 03.04.2028 -
Manuel Ugarte Leicester City Aktiv 150 / 153 40% 3 01.04.2028 -
Keane Lewis-Potter Brentford Aktiv 149 / 147 40% 1 01.04.2028 -
Matteo Ruggeri Middlesbrough Aktiv 157 / 155 40% 3 31.03.2028 -
Archie Gray Southampton Aktiv 151 / 157 40% 2 31.03.2028 -
Yasin Ayari Middlesbrough Aktiv 151 / 150 40% 1 30.03.2028 -
Honest Ahanor Atalanta Aktiv 134 / 144 40% 11 29.03.2028 -
Neco Williams Wrexham Aktiv 152 / 144 40% 1 29.03.2028 -
Patrick Dorgu Bristol City Aktiv 150 / 147 40% 1 21.03.2028 -
Jordan Beyer Burnley Aktiv 141 / 141 40% 1 20.03.2028 -
Quilindschy Hartman Burnley Aktiv 150 / 145 40% 1 19.03.2028 -
Bobby Thomas Grimsby Town Aktiv 140 / 142 40% 1 09.03.2028 -
Emil Holm Bologna Aktiv 149 / 146 40% 7 21.02.2028 -
Adrián Bernabé Parma Aktiv 143 / 147 40% 6 21.02.2028 -
Giorgio Scalvini Atalanta Aktiv 157 / 159 40% 4 15.02.2028 -
Khéphren Thuram Juventus Aktiv 162 / 166 40% 7 13.02.2028 -
Wesley AS Roma Aktiv 153 / 149 40% 1 13.02.2028 -
Eivind Helland AC Milan Aktiv 139 / 142 40% 8 12.02.2028 -
Ângelo Al-Hilal Aktiv 143 / 145 40% 3 12.02.2028 -
Ignace Van Der Brempt Como Aktiv 142 / 143 40% 2 11.02.2028 -
Hans Nicolussi Caviglia Parma Aktiv 141 / 139 40% 1 11.02.2028 -
Devyne Rensch Virtus Entella Aktiv 148 / 151 40% 3 09.02.2028 -
Enzo Millot Al-Ahli Aktiv 153 / 151 40% 6 08.02.2028 -
Matteo Prati Cagliari Aktiv 137 / 136 40% 4 02.02.2028 -
Odilon Kossounou Atalanta Aktiv 150 / 152 40% 3 29.01.2028 -
Andrea Cambiaso Juventus Aktiv 156 / 151 40% 8 26.01.2028 -
Igoh Ogbu Ajax Aktiv 147 / 148 79% 1 25.01.2028 Befürworten
Facundo Torres Millonarios Aktiv 134 / 134 67% 1 25.01.2028 Befürworten
Nicolás Fernández Mercau Club America Aktiv 134 / 134 67% 1 25.01.2028 -
Boulaye Dia Lazio Aktiv 142 / 148 40% 1 25.01.2028 -
Gianluca Scamacca Atalanta Aktiv 154 / 153 40% 1 25.01.2028 -
Mateo Pellegrino Fiorentina Aktiv 144 / 146 40% 1 25.01.2028 -
Nicolò Fagioli Fiorentina Aktiv 149 / 149 40% 2 23.01.2028 -
Nikita Krivtsov Krasnodar Aktiv 136 / 129 40% 13 22.01.2028 -
Yacine Adli Al-Shabab Aktiv 145 / 142 40% 3 21.01.2028 -
Curtis Jones Inter Aktiv 162 / 159 40% 5 21.01.2028 -
Oumar Solet Udinese Aktiv 155 / 151 40% 2 19.01.2028 -
Rafa Marín Pisa Aktiv 157 / 152 40% 5 13.01.2028 -
Tommaso Barbieri Cremonese Aktiv 142 / 134 40% 1 09.01.2028 -
Alexandr Chernikov Krasnodar Aktiv 135 / 134 40% 9 08.01.2028 -
Dion Lopy Al-Ittihad Aktiv 133 / 127 40% 4 05.01.2028 -
Manu Koné AS Roma Aktiv 167 / 168 40% 1 02.01.2028 -
Trai Hume Aston Villa Aktiv 137 / 140 40% 5 17.12.2027 -
Antonino Gallo Bari Aktiv 141 / 142 40% 1 17.12.2027 -
Roméo Lavia Chelsea Aktiv 156 / 160 40% 1 16.12.2027 -
El Hadji Malick Diouf Inter Aktiv 148 / 149 40% 7 08.12.2027 -
Josh Acheampong Everton Aktiv 140 / 149 40% 4 14.11.2027 -
Eliás Montiel Borussia Dortmund Aktiv 138 / 141 40% 5 12.11.2027 -
Soungoutou Magassa West Ham United Aktiv 143 / 142 40% 2 24.10.2027 -
Pedro Bicalho Qarabag Aktiv 134 / 132 40% 2 20.10.2027 -
Luka Vušković Tottenham Aktiv 148 / 154 40% 1 07.10.2027 -
Unai Eguíluz Athletic Bilbao Aktiv 131 / 132 40% 2 04.10.2027 -
Owen Beck Liverpool Aktiv 133 / 133 40% 4 30.08.2027 -
Callum Doyle Newcastle United Aktiv 133 / 141 40% 2 23.08.2027 -
Arsenii Batahov Trabzonspor Aktiv 136 / 133 40% 1 09.08.2027 -
Juan David Cabal Juventus Aktiv 143 / 145 40% 8 02.08.2027 -
Alessandro Zanoli Udinese Aktiv 131 / 130 40% 1 22.07.2027 -
Maxim De Cuyper Brighton Aktiv 142 / 141 40% 4 20.07.2027 -
Zakaria El Ouahdi Hamburger SV Aktiv 135 / 130 40% 1 19.07.2027 -
Justin de Haas Valencia Aktiv 131 / 136 40% 1 12.07.2027 -
Álvaro Núñez Celta Aktiv 134 / 128 40% 1 04.07.2027 -
Jens Cajuste Napoli Aktiv 138 / 138 40% 1 04.07.2027 -
Jorge Cuenca Fulham Aktiv 144 / 143 40% 1 02.07.2027 -
Iliya Gruev Leeds United Aktiv 131 / 129 40% 1 22.06.2027 -
Max Rosenfelder SC Freiburg Aktiv 138 / 133 40% 1 18.06.2027 -
Alexander Prass TSG Hoffenheim Aktiv 136 / 137 40% 2 17.06.2027 -
Franculino Brighton Aktiv 138 / 139 40% 9 27.05.2027 -
Mathys Tel Tottenham Aktiv 143 / 142 40% 13 24.05.2027 -
Eduardo Lozano Botafogo Aktiv 148 / 157 40% 13 24.05.2027 -
Carlos Vinícius Grêmio Aktiv 132 / 147 40% 4 25.03.2027 -
Brayan Gil Baltika Aktiv 120 / 115 83% 1 26.01.2027 Befürworten
Dmitry Vasiljev Orenburg Aktiv 117 / 112 83% 1 25.01.2027 Befürworten
Ferland Mendy Real Madrid Aktiv 144 / 145 40% 4 15.01.2027 -
Edu Expósito Espanyol Aktiv 139 / 135 40% 5 01.01.2027 -
Diego Gómez Brighton Aktiv 143 / 138 40% 3 29.12.2026 -
Luiz Araújo Flamengo Aktiv 133 / 138 40% 1 29.12.2026 -
Manu Morlanes Mallorca Aktiv 136 / 130 40% 9 27.12.2026 -
Tyrhys Dolan Espanyol Aktiv 140 / 134 40% 2 24.12.2026 -
Wilson Odobert Brighton Aktiv 140 / 142 40% 2 19.12.2026 -
Yves Bissouma Tottenham Aktiv 140 / 143 40% 2 05.11.2026 -
Adrian Šemper Al-Fateh Aktiv 120 / 131 40% 1 02.09.2026 -